sensor_id;sensor_type;location;lat;lon;timestamp;pressure;altitude;pressure_sealevel;temperature;humidity
36242;BME280;22283;42.748;12.732;2023-06-22T00:03:02;98507.50;;;20.57;90.33
36242;BME280;22283;42.748;12.732;2023-06-22T00:08:03;98501.78;;;20.52;90.31
36242;BME280;22283;42.748;12.732;2023-06-22T00:13:06;98501.09;;;20.50;90.08
36242;BME280;22283;42.748;12.732;2023-06-22T00:18:09;98499.72;;;20.46;89.04
36242;BME280;22283;42.748;12.732;2023-06-22T00:23:10;98488.28;;;20.36;90.15
36242;BME280;22283;42.748;12.732;2023-06-22T00:28:11;98496.00;;;20.31;90.75
36242;BME280;22283;42.748;12.732;2023-06-22T00:33:11;98487.59;;;20.26;90.96
36242;BME280;22283;42.748;12.732;2023-06-22T00:38:31;98490.13;;;20.27;90.44
36242;BME280;22283;42.748;12.732;2023-06-22T00:43:42;98488.44;;;20.26;90.52
36242;BME280;22283;42.748;12.732;2023-06-22T00:48:43;98482.22;;;20.34;88.82
36242;BME280;22283;42.748;12.732;2023-06-22T00:53:44;98482.91;;;20.36;88.56
36242;BME280;22283;42.748;12.732;2023-06-22T00:58:46;98491.28;;;20.25;89.85
36242;BME280;22283;42.748;12.732;2023-06-22T01:03:47;98488.41;;;20.10;91.47
36242;BME280;22283;42.748;12.732;2023-06-22T01:08:57;98468.22;;;19.98;92.26
36242;BME280;22283;42.748;12.732;2023-06-22T01:14:14;98476.28;;;19.98;92.77
36242;BME280;22283;42.748;12.732;2023-06-22T01:24:48;98478.06;;;19.81;94.43
36242;BME280;22283;42.748;12.732;2023-06-22T01:29:55;98479.53;;;19.75;95.29
36242;BME280;22283;42.748;12.732;2023-06-22T01:35:04;98477.94;;;19.56;96.18
36242;BME280;22283;42.748;12.732;2023-06-22T01:40:06;98481.59;;;19.55;97.29
36242;BME280;22283;42.748;12.732;2023-06-22T01:45:09;98484.28;;;19.55;98.11
36242;BME280;22283;42.748;12.732;2023-06-22T01:50:12;98472.66;;;19.38;99.15
36242;BME280;22283;42.748;12.732;2023-06-22T01:55:13;98470.97;;;19.37;98.87
36242;BME280;22283;42.748;12.732;2023-06-22T02:00:18;98461.19;;;19.28;99.65
36242;BME280;22283;42.748;12.732;2023-06-22T02:05:26;98466.75;;;19.35;98.54
36242;BME280;22283;42.748;12.732;2023-06-22T02:10:29;98464.75;;;19.37;97.88
36242;BME280;22283;42.748;12.732;2023-06-22T02:15:32;98460.84;;;19.31;99.03
36242;BME280;22283;42.748;12.732;2023-06-22T02:20:37;98449.56;;;19.20;99.11
36242;BME280;22283;42.748;12.732;2023-06-22T02:25:37;98467.19;;;19.22;100.00
36242;BME280;22283;42.748;12.732;2023-06-22T02:30:38;98462.31;;;19.17;100.00
36242;BME280;22283;42.748;12.732;2023-06-22T02:35:41;98462.34;;;19.00;100.00
36242;BME280;22283;42.748;12.732;2023-06-22T02:40:46;98465.72;;;19.02;100.00
36242;BME280;22283;42.748;12.732;2023-06-22T02:45:46;98462.03;;;19.03;100.00
36242;BME280;22283;42.748;12.732;2023-06-22T02:50:49;98461.44;;;18.91;100.00
36242;BME280;22283;42.748;12.732;2023-06-22T02:55:49;98464.06;;;18.83;100.00
36242;BME280;22283;42.748;12.732;2023-06-22T03:00:50;98472.13;;;18.83;100.00
36242;BME280;22283;42.748;12.732;2023-06-22T03:05:54;98465.09;;;18.82;100.00
36242;BME280;22283;42.748;12.732;2023-06-22T03:10:56;98460.03;;;18.79;100.00
36242;BME280;22283;42.748;12.732;2023-06-22T03:15:57;98468.84;;;18.71;100.00
36242;BME280;22283;42.748;12.732;2023-06-22T03:20:58;98455.34;;;18.63;100.00
36242;BME280;22283;42.748;12.732;2023-06-22T03:25:59;98476.25;;;18.59;100.00
36242;BME280;22283;42.748;12.732;2023-06-22T03:30:59;98464.00;;;18.57;100.00
36242;BME280;22283;42.748;12.732;2023-06-22T03:36:00;98477.94;;;18.60;100.00
36242;BME280;22283;42.748;12.732;2023-06-22T03:41:01;98470.06;;;18.59;100.00
36242;BME280;22283;42.748;12.732;2023-06-22T03:46:04;98477.63;;;18.63;100.00
36242;BME280;22283;42.748;12.732;2023-06-22T03:51:04;98476.03;;;18.71;100.00
36242;BME280;22283;42.748;12.732;2023-06-22T03:56:11;98480.88;;;18.85;100.00
36242;BME280;22283;42.748;12.732;2023-06-22T04:01:15;98479.91;;;18.94;100.00
36242;BME280;22283;42.748;12.732;2023-06-22T04:06:17;98481.69;;;19.11;99.80
36242;BME280;22283;42.748;12.732;2023-06-22T04:11:18;98464.56;;;19.30;98.56
36242;BME280;22283;42.748;12.732;2023-06-22T04:16:19;98475.25;;;19.56;97.10
36242;BME280;22283;42.748;12.732;2023-06-22T04:21:19;98475.09;;;19.92;95.25
36242;BME280;22283;42.748;12.732;2023-06-22T04:26:20;98469.09;;;20.23;94.34
36242;BME280;22283;42.748;12.732;2023-06-22T04:31:24;98465.50;;;20.65;89.85
36242;BME280;22283;42.748;12.732;2023-06-22T04:36:38;98465.97;;;21.01;88.43
36242;BME280;22283;42.748;12.732;2023-06-22T04:41:40;98454.66;;;21.46;87.05
36242;BME280;22283;42.748;12.732;2023-06-22T04:46:44;98461.38;;;22.13;81.38
36242;BME280;22283;42.748;12.732;2023-06-22T04:51:44;98460.56;;;22.66;75.64
36242;BME280;22283;42.748;12.732;2023-06-22T04:56:45;98460.22;;;23.22;72.22
36242;BME280;22283;42.748;12.732;2023-06-22T05:01:47;98466.00;;;23.63;69.99
36242;BME280;22283;42.748;12.732;2023-06-22T05:06:47;98468.72;;;23.93;71.58
36242;BME280;22283;42.748;12.732;2023-06-22T05:11:48;98474.28;;;23.91;65.72
36242;BME280;22283;42.748;12.732;2023-06-22T05:16:49;98486.03;;;24.71;66.24
36242;BME280;22283;42.748;12.732;2023-06-22T05:21:49;98492.56;;;25.05;64.52
36242;BME280;22283;42.748;12.732;2023-06-22T05:26:50;98489.94;;;25.39;63.86
36242;BME280;22283;42.748;12.732;2023-06-22T05:31:51;98494.81;;;25.57;64.40
36242;BME280;22283;42.748;12.732;2023-06-22T05:36:52;98500.22;;;25.85;62.94
36242;BME280;22283;42.748;12.732;2023-06-22T05:41:53;98496.53;;;25.99;61.65
36242;BME280;22283;42.748;12.732;2023-06-22T05:46:53;98496.59;;;26.87;57.06
36242;BME280;22283;42.748;12.732;2023-06-22T05:51:54;98504.94;;;26.92;55.75
36242;BME280;22283;42.748;12.732;2023-06-22T05:56:54;98506.22;;;27.50;55.13
36242;BME280;22283;42.748;12.732;2023-06-22T06:01:55;98516.59;;;27.86;53.02
36242;BME280;22283;42.748;12.732;2023-06-22T06:06:56;98507.97;;;28.09;53.57
36242;BME280;22283;42.748;12.732;2023-06-22T06:11:56;98509.25;;;28.51;52.71
36242;BME280;22283;42.748;12.732;2023-06-22T06:16:57;98507.63;;;28.75;50.11
36242;BME280;22283;42.748;12.732;2023-06-22T06:21:58;98503.75;;;28.89;50.51
36242;BME280;22283;42.748;12.732;2023-06-22T06:26:58;98509.81;;;29.23;48.83
36242;BME280;22283;42.748;12.732;2023-06-22T06:31:59;98515.59;;;28.70;49.11
36242;BME280;22283;42.748;12.732;2023-06-22T06:36:59;98519.09;;;29.15;48.31
36242;BME280;22283;42.748;12.732;2023-06-22T06:42:00;98513.47;;;29.97;46.60
36242;BME280;22283;42.748;12.732;2023-06-22T06:47:01;98517.31;;;30.45;46.44
36242;BME280;22283;42.748;12.732;2023-06-22T06:52:01;98509.81;;;30.70;45.35
36242;BME280;22283;42.748;12.732;2023-06-22T06:57:02;98502.63;;;30.46;44.97
36242;BME280;22283;42.748;12.732;2023-06-22T07:02:03;98498.47;;;30.73;46.96
36242;BME280;22283;42.748;12.732;2023-06-22T07:07:05;98496.84;;;30.96;46.57
36242;BME280;22283;42.748;12.732;2023-06-22T07:12:06;98486.69;;;30.73;45.81
36242;BME280;22283;42.748;12.732;2023-06-22T07:17:07;98496.22;;;30.82;46.56
36242;BME280;22283;42.748;12.732;2023-06-22T07:22:08;98483.19;;;31.07;46.42
36242;BME280;22283;42.748;12.732;2023-06-22T07:27:08;98487.31;;;30.75;47.55
36242;BME280;22283;42.748;12.732;2023-06-22T07:32:11;98474.06;;;31.02;47.49
36242;BME280;22283;42.748;12.732;2023-06-22T07:37:12;98480.97;;;31.40;46.63
36242;BME280;22283;42.748;12.732;2023-06-22T07:42:13;98477.88;;;31.24;45.92
36242;BME280;22283;42.748;12.732;2023-06-22T07:47:19;98486.13;;;31.36;45.80
36242;BME280;22283;42.748;12.732;2023-06-22T07:52:19;98470.91;;;31.40;44.71
36242;BME280;22283;42.748;12.732;2023-06-22T07:57:21;98468.81;;;31.94;42.70
36242;BME280;22283;42.748;12.732;2023-06-22T08:02:22;98468.53;;;32.19;42.19
36242;BME280;22283;42.748;12.732;2023-06-22T08:07:22;98480.06;;;32.10;41.78
36242;BME280;22283;42.748;12.732;2023-06-22T08:12:23;98472.84;;;32.03;41.67
36242;BME280;22283;42.748;12.732;2023-06-22T08:17:24;98466.78;;;32.59;41.36
36242;BME280;22283;42.748;12.732;2023-06-22T08:22:25;98472.22;;;32.70;40.03
36242;BME280;22283;42.748;12.732;2023-06-22T08:27:25;98486.09;;;32.64;40.35
36242;BME280;22283;42.748;12.732;2023-06-22T08:32:28;98486.66;;;32.37;39.19
36242;BME280;22283;42.748;12.732;2023-06-22T08:37:29;98476.81;;;32.24;40.06
36242;BME280;22283;42.748;12.732;2023-06-22T08:42:36;98470.41;;;32.59;39.22
36242;BME280;22283;42.748;12.732;2023-06-22T08:47:37;98465.63;;;33.00;38.99
36242;BME280;22283;42.748;12.732;2023-06-22T08:52:39;98469.84;;;32.91;38.35
36242;BME280;22283;42.748;12.732;2023-06-22T08:57:41;98465.16;;;32.74;37.66
36242;BME280;22283;42.748;12.732;2023-06-22T09:02:44;98456.81;;;32.98;37.85
36242;BME280;22283;42.748;12.732;2023-06-22T09:07:45;98467.53;;;33.16;38.33
36242;BME280;22283;42.748;12.732;2023-06-22T09:12:46;98467.38;;;33.06;38.20
36242;BME280;22283;42.748;12.732;2023-06-22T09:17:47;98458.31;;;33.05;38.52
36242;BME280;22283;42.748;12.732;2023-06-22T09:22:48;98465.72;;;33.05;38.83
36242;BME280;22283;42.748;12.732;2023-06-22T09:27:48;98450.91;;;33.06;38.82
36242;BME280;22283;42.748;12.732;2023-06-22T09:32:49;98462.88;;;33.17;38.51
36242;BME280;22283;42.748;12.732;2023-06-22T09:37:50;98461.16;;;33.11;38.26
36242;BME280;22283;42.748;12.732;2023-06-22T09:42:50;98458.56;;;33.21;38.54
36242;BME280;22283;42.748;12.732;2023-06-22T09:47:51;98446.66;;;33.49;38.23
36242;BME280;22283;42.748;12.732;2023-06-22T09:52:51;98443.38;;;33.69;38.24
36242;BME280;22283;42.748;12.732;2023-06-22T10:11:32;98438.22;;;33.94;37.83
36242;BME280;22283;42.748;12.732;2023-06-22T10:16:36;98447.34;;;34.22;38.33
36242;BME280;22283;42.748;12.732;2023-06-22T10:21:37;98436.69;;;34.25;38.06
36242;BME280;22283;42.748;12.732;2023-06-22T10:26:37;98433.75;;;34.59;37.10
36242;BME280;22283;42.748;12.732;2023-06-22T10:31:38;98426.78;;;34.79;35.99
36242;BME280;22283;42.748;12.732;2023-06-22T10:36:39;98427.53;;;35.01;35.56
36242;BME280;22283;42.748;12.732;2023-06-22T10:41:40;98423.03;;;34.90;35.97
36242;BME280;22283;42.748;12.732;2023-06-22T10:46:40;98415.06;;;34.93;36.47
36242;BME280;22283;42.748;12.732;2023-06-22T10:51:41;98423.06;;;34.95;35.45
36242;BME280;22283;42.748;12.732;2023-06-22T10:56:42;98410.00;;;35.50;33.50
36242;BME280;22283;42.748;12.732;2023-06-22T11:01:43;98404.94;;;35.94;33.21
36242;BME280;22283;42.748;12.732;2023-06-22T11:06:44;98395.16;;;36.24;32.50
36242;BME280;22283;42.748;12.732;2023-06-22T11:11:45;98395.69;;;36.31;32.72
36242;BME280;22283;42.748;12.732;2023-06-22T11:16:45;98390.81;;;36.58;33.10
36242;BME280;22283;42.748;12.732;2023-06-22T11:21:46;98383.91;;;36.46;31.84
36242;BME280;22283;42.748;12.732;2023-06-22T11:26:47;98374.75;;;36.35;32.62
36242;BME280;22283;42.748;12.732;2023-06-22T11:31:48;98363.75;;;36.25;31.75
36242;BME280;22283;42.748;12.732;2023-06-22T11:36:48;98362.66;;;36.41;29.96
36242;BME280;22283;42.748;12.732;2023-06-22T11:41:49;98364.91;;;36.64;28.21
36242;BME280;22283;42.748;12.732;2023-06-22T11:46:50;98372.34;;;36.84;29.81
36242;BME280;22283;42.748;12.732;2023-06-22T11:51:51;98359.69;;;36.99;27.22
36242;BME280;22283;42.748;12.732;2023-06-22T11:56:51;98357.97;;;37.13;28.24
36242;BME280;22283;42.748;12.732;2023-06-22T12:01:52;98358.22;;;37.22;27.14
36242;BME280;22283;42.748;12.732;2023-06-22T12:06:53;98357.66;;;37.30;27.73
36242;BME280;22283;42.748;12.732;2023-06-22T12:11:54;98349.94;;;37.32;27.44
36242;BME280;22283;42.748;12.732;2023-06-22T12:16:54;98349.94;;;37.27;27.52
36242;BME280;22283;42.748;12.732;2023-06-22T12:21:55;98347.75;;;37.13;27.39
36242;BME280;22283;42.748;12.732;2023-06-22T12:26:56;98338.69;;;37.08;27.12
36242;BME280;22283;42.748;12.732;2023-06-22T12:31:57;98334.00;;;37.03;25.92
36242;BME280;22283;42.748;12.732;2023-06-22T12:36:58;98338.44;;;36.94;26.49
36242;BME280;22283;42.748;12.732;2023-06-22T12:42:02;98338.41;;;37.04;25.59
36242;BME280;22283;42.748;12.732;2023-06-22T12:47:03;98335.91;;;37.13;26.05
36242;BME280;22283;42.748;12.732;2023-06-22T12:52:08;98334.81;;;37.19;26.56
36242;BME280;22283;42.748;12.732;2023-06-22T12:57:10;98341.38;;;37.28;27.00
36242;BME280;22283;42.748;12.732;2023-06-22T13:02:11;98338.88;;;37.37;26.05
36242;BME280;22283;42.748;12.732;2023-06-22T13:07:12;98333.38;;;37.42;26.13
36242;BME280;22283;42.748;12.732;2023-06-22T13:12:13;98331.69;;;37.41;26.71
36242;BME280;22283;42.748;12.732;2023-06-22T13:17:14;98324.00;;;37.28;27.28
36242;BME280;22283;42.748;12.732;2023-06-22T13:22:30;98326.19;;;37.41;27.63
36242;BME280;22283;42.748;12.732;2023-06-22T13:27:31;98323.09;;;37.53;27.75
36242;BME280;22283;42.748;12.732;2023-06-22T13:32:32;98329.50;;;37.33;29.07
36242;BME280;22283;42.748;12.732;2023-06-22T13:37:33;98317.09;;;37.35;29.05
36242;BME280;22283;42.748;12.732;2023-06-22T13:42:34;98316.28;;;37.25;28.85
36242;BME280;22283;42.748;12.732;2023-06-22T13:47:35;98320.44;;;37.17;28.25
36242;BME280;22283;42.748;12.732;2023-06-22T13:52:35;98310.47;;;37.31;26.93
36242;BME280;22283;42.748;12.732;2023-06-22T13:57:37;98304.63;;;37.38;28.20
36242;BME280;22283;42.748;12.732;2023-06-22T14:02:38;98300.78;;;37.44;28.58
36242;BME280;22283;42.748;12.732;2023-06-22T14:07:40;98291.94;;;37.37;29.04
36242;BME280;22283;42.748;12.732;2023-06-22T14:12:41;98295.03;;;37.25;29.30
36242;BME280;22283;42.748;12.732;2023-06-22T14:17:42;98286.81;;;37.10;29.41
36242;BME280;22283;42.748;12.732;2023-06-22T14:22:43;98283.25;;;36.89;29.13
36242;BME280;22283;42.748;12.732;2023-06-22T14:27:44;98273.38;;;36.78;28.22
36242;BME280;22283;42.748;12.732;2023-06-22T14:32:45;98275.03;;;36.58;29.55
36242;BME280;22283;42.748;12.732;2023-06-22T14:37:45;98271.19;;;36.64;29.33
36242;BME280;22283;42.748;12.732;2023-06-22T14:42:46;98261.28;;;36.63;29.13
36242;BME280;22283;42.748;12.732;2023-06-22T14:47:47;98256.56;;;36.69;29.38
36242;BME280;22283;42.748;12.732;2023-06-22T14:52:47;98255.22;;;36.56;29.22
36242;BME280;22283;42.748;12.732;2023-06-22T14:57:48;98255.47;;;36.44;29.96
36242;BME280;22283;42.748;12.732;2023-06-22T15:02:49;98246.66;;;36.42;30.73
36242;BME280;22283;42.748;12.732;2023-06-22T15:07:50;98241.44;;;36.31;30.04
36242;BME280;22283;42.748;12.732;2023-06-22T15:12:51;98240.63;;;36.20;30.19
36242;BME280;22283;42.748;12.732;2023-06-22T15:17:51;98229.06;;;36.13;29.82
36242;BME280;22283;42.748;12.732;2023-06-22T15:22:52;98232.63;;;35.98;29.36
36242;BME280;22283;42.748;12.732;2023-06-22T15:27:53;98227.38;;;35.81;30.09
36242;BME280;22283;42.748;12.732;2023-06-22T15:32:54;98227.34;;;35.71;30.05
36242;BME280;22283;42.748;12.732;2023-06-22T15:37:55;98223.75;;;35.76;29.77
36242;BME280;22283;42.748;12.732;2023-06-22T15:42:55;98223.50;;;35.82;30.06
36242;BME280;22283;42.748;12.732;2023-06-22T15:47:56;98213.28;;;35.67;30.78
36242;BME280;22283;42.748;12.732;2023-06-22T15:52:57;98214.94;;;35.63;29.44
36242;BME280;22283;42.748;12.732;2023-06-22T15:57:58;98215.50;;;35.60;30.33
36242;BME280;22283;42.748;12.732;2023-06-22T16:02:58;98202.28;;;35.52;29.92
36242;BME280;22283;42.748;12.732;2023-06-22T16:07:59;98198.38;;;35.43;29.83
36242;BME280;22283;42.748;12.732;2023-06-22T16:13:00;98196.66;;;35.27;29.28
36242;BME280;22283;42.748;12.732;2023-06-22T16:18:01;98187.25;;;35.07;30.29
36242;BME280;22283;42.748;12.732;2023-06-22T16:23:01;98186.69;;;35.00;30.31
36242;BME280;22283;42.748;12.732;2023-06-22T16:28:03;98181.06;;;34.74;31.47
36242;BME280;22283;42.748;12.732;2023-06-22T16:33:03;98187.03;;;34.61;31.95
36242;BME280;22283;42.748;12.732;2023-06-22T16:38:04;98173.50;;;34.49;32.30
36242;BME280;22283;42.748;12.732;2023-06-22T16:43:05;98177.88;;;34.13;33.04
36242;BME280;22283;42.748;12.732;2023-06-22T16:48:06;98184.13;;;33.71;33.65
36242;BME280;22283;42.748;12.732;2023-06-22T16:53:06;98180.97;;;33.31;34.35
36242;BME280;22283;42.748;12.732;2023-06-22T16:58:09;98170.47;;;33.22;34.67
36242;BME280;22283;42.748;12.732;2023-06-22T17:03:24;98171.78;;;33.20;35.33
36242;BME280;22283;42.748;12.732;2023-06-22T17:08:29;98175.22;;;33.10;35.50
36242;BME280;22283;42.748;12.732;2023-06-22T17:13:34;98173.31;;;32.89;35.79
36242;BME280;22283;42.748;12.732;2023-06-22T17:18:36;98170.44;;;32.78;36.03
36242;BME280;22283;42.748;12.732;2023-06-22T17:23:37;98165.41;;;32.70;36.39
36242;BME280;22283;42.748;12.732;2023-06-22T17:28:52;98176.28;;;32.65;36.72
36242;BME280;22283;42.748;12.732;2023-06-22T17:33:54;98161.44;;;32.61;37.00
36242;BME280;22283;42.748;12.732;2023-06-22T17:38:58;98165.13;;;32.50;37.21
36242;BME280;22283;42.748;12.732;2023-06-22T17:43:59;98173.69;;;32.37;37.72
36242;BME280;22283;42.748;12.732;2023-06-22T17:49:02;98183.50;;;32.16;38.16
36242;BME280;22283;42.748;12.732;2023-06-22T17:54:07;98196.94;;;32.00;38.30
36242;BME280;22283;42.748;12.732;2023-06-22T17:59:07;98195.72;;;31.79;38.72
36242;BME280;22283;42.748;12.732;2023-06-22T18:04:11;98204.66;;;31.58;39.02
36242;BME280;22283;42.748;12.732;2023-06-22T18:09:13;98197.50;;;31.40;39.17
36242;BME280;22283;42.748;12.732;2023-06-22T18:14:16;98205.53;;;31.18;39.51
36242;BME280;22283;42.748;12.732;2023-06-22T18:19:18;98214.59;;;30.95;40.00
36242;BME280;22283;42.748;12.732;2023-06-22T18:24:19;98213.94;;;30.76;39.81
36242;BME280;22283;42.748;12.732;2023-06-22T18:29:21;98204.34;;;30.50;40.05
36242;BME280;22283;42.748;12.732;2023-06-22T18:34:22;98198.22;;;30.13;41.80
36242;BME280;22283;42.748;12.732;2023-06-22T18:39:24;98196.78;;;29.75;41.98
36242;BME280;22283;42.748;12.732;2023-06-22T18:44:27;98204.44;;;29.36;42.75
36242;BME280;22283;42.748;12.732;2023-06-22T18:54:48;98207.59;;;28.66;42.83
36242;BME280;22283;42.748;12.732;2023-06-22T19:00:28;98203.91;;;28.36;43.31
36242;BME280;22283;42.748;12.732;2023-06-22T19:05:40;98207.16;;;28.01;45.06
36242;BME280;22283;42.748;12.732;2023-06-22T19:10:42;98212.31;;;27.84;45.07
36242;BME280;22283;42.748;12.732;2023-06-22T19:15:44;98210.28;;;27.73;46.03
36242;BME280;22283;42.748;12.732;2023-06-22T19:21:01;98214.22;;;27.45;46.40
36242;BME280;22283;42.748;12.732;2023-06-22T19:26:05;98220.38;;;27.28;46.04
36242;BME280;22283;42.748;12.732;2023-06-22T19:31:08;98209.81;;;27.13;46.07
36242;BME280;22283;42.748;12.732;2023-06-22T19:36:09;98222.41;;;26.87;47.60
36242;BME280;22283;42.748;12.732;2023-06-22T19:41:10;98219.97;;;26.66;48.02
36242;BME280;22283;42.748;12.732;2023-06-22T19:46:11;98220.00;;;26.53;48.68
36242;BME280;22283;42.748;12.732;2023-06-22T19:51:12;98223.97;;;26.30;49.66
36242;BME280;22283;42.748;12.732;2023-06-22T19:56:19;98227.94;;;26.14;50.34
36242;BME280;22283;42.748;12.732;2023-06-22T20:01:19;98242.13;;;26.03;50.73
36242;BME280;22283;42.748;12.732;2023-06-22T20:06:21;98239.63;;;26.15;49.01
36242;BME280;22283;42.748;12.732;2023-06-22T20:11:26;98242.75;;;26.12;50.27
36242;BME280;22283;42.748;12.732;2023-06-22T20:16:30;98262.38;;;26.14;51.07
36242;BME280;22283;42.748;12.732;2023-06-22T20:21:31;98269.03;;;26.05;51.10
36242;BME280;22283;42.748;12.732;2023-06-22T20:26:45;98278.84;;;26.19;51.78
36242;BME280;22283;42.748;12.732;2023-06-22T20:31:46;98273.63;;;26.11;51.29
36242;BME280;22283;42.748;12.732;2023-06-22T20:36:47;98284.28;;;26.06;51.64
36242;BME280;22283;42.748;12.732;2023-06-22T20:41:47;98277.16;;;25.91;51.92
36242;BME280;22283;42.748;12.732;2023-06-22T20:46:48;98263.59;;;25.78;52.42
36242;BME280;22283;42.748;12.732;2023-06-22T20:51:50;98262.50;;;25.66;52.83
36242;BME280;22283;42.748;12.732;2023-06-22T20:56:51;98277.31;;;25.70;52.89
36242;BME280;22283;42.748;12.732;2023-06-22T21:01:52;98271.28;;;25.74;53.30
36242;BME280;22283;42.748;12.732;2023-06-22T21:06:56;98267.91;;;25.59;55.01
36242;BME280;22283;42.748;12.732;2023-06-22T21:11:58;98269.09;;;25.43;56.15
36242;BME280;22283;42.748;12.732;2023-06-22T21:16:59;98271.16;;;25.41;57.32
36242;BME280;22283;42.748;12.732;2023-06-22T21:22:00;98270.34;;;25.34;58.86
36242;BME280;22283;42.748;12.732;2023-06-22T21:27:01;98268.47;;;25.35;58.26
36242;BME280;22283;42.748;12.732;2023-06-22T21:32:03;98269.03;;;25.30;59.10
36242;BME280;22283;42.748;12.732;2023-06-22T21:37:04;98263.19;;;25.20;57.77
36242;BME280;22283;42.748;12.732;2023-06-22T21:42:05;98260.69;;;25.18;57.94
36242;BME280;22283;42.748;12.732;2023-06-22T21:47:06;98274.41;;;25.17;58.91
36242;BME280;22283;42.748;12.732;2023-06-22T21:52:07;98271.63;;;25.03;60.16
36242;BME280;22283;42.748;12.732;2023-06-22T21:57:08;98278.22;;;24.94;61.79
36242;BME280;22283;42.748;12.732;2023-06-22T22:02:09;98270.09;;;24.88;61.99
36242;BME280;22283;42.748;12.732;2023-06-22T22:07:10;98279.28;;;24.93;62.08
36242;BME280;22283;42.748;12.732;2023-06-22T22:12:11;98293.84;;;24.92;62.67
36242;BME280;22283;42.748;12.732;2023-06-22T22:17:12;98314.50;;;25.00;62.57
36242;BME280;22283;42.748;12.732;2023-06-22T22:22:13;98314.06;;;24.96;61.92
36242;BME280;22283;42.748;12.732;2023-06-22T22:27:14;98292.97;;;24.85;62.54
36242;BME280;22283;42.748;12.732;2023-06-22T22:32:15;98296.66;;;24.71;62.66
36242;BME280;22283;42.748;12.732;2023-06-22T22:37:15;98284.22;;;24.83;61.70
36242;BME280;22283;42.748;12.732;2023-06-22T22:42:16;98261.69;;;24.76;62.52
36242;BME280;22283;42.748;12.732;2023-06-22T22:47:17;98249.44;;;24.80;62.29
36242;BME280;22283;42.748;12.732;2023-06-22T22:52:17;98240.72;;;24.85;61.98
36242;BME280;22283;42.748;12.732;2023-06-22T22:57:18;98245.81;;;24.66;62.09
36242;BME280;22283;42.748;12.732;2023-06-22T23:02:20;98239.97;;;24.63;61.57
36242;BME280;22283;42.748;12.732;2023-06-22T23:07:23;98231.72;;;24.77;57.79
36242;BME280;22283;42.748;12.732;2023-06-22T23:12:26;98226.66;;;25.02;56.95
36242;BME280;22283;42.748;12.732;2023-06-22T23:17:27;98243.19;;;25.21;57.86
36242;BME280;22283;42.748;12.732;2023-06-22T23:22:28;98237.78;;;25.21;56.88
36242;BME280;22283;42.748;12.732;2023-06-22T23:27:28;98230.31;;;25.23;55.45
36242;BME280;22283;42.748;12.732;2023-06-22T23:32:29;98221.31;;;25.16;54.53
36242;BME280;22283;42.748;12.732;2023-06-22T23:37:30;98228.94;;;25.06;53.61
36242;BME280;22283;42.748;12.732;2023-06-22T23:42:31;98240.94;;;24.90;54.29
36242;BME280;22283;42.748;12.732;2023-06-22T23:47:33;98245.09;;;24.86;55.02
36242;BME280;22283;42.748;12.732;2023-06-22T23:52:36;98229.44;;;25.16;53.59
36242;BME280;22283;42.748;12.732;2023-06-22T23:57:36;98203.66;;;25.33;53.60
